Time;durP1;ratioP1;P1;durP2;ratioP2;P2;SDS_P1;SDS_P2;PMS_P1;PMS_P2;Temp;Humidity;BMP_temperature;BMP_pressure;BME280_temperature;BME280_humidity;BME280_pressure;Samples;Min_cycle;Max_cycle;Signal;HPM_P1;HPM_P2
2021/10/27 07:48:52;;;;;;;24.95;13.70;;;;;;;5.18;100.00;100081.41;5111850;27;20403;-80
2021/10/27 07:51:19;;;;;;;29.13;14.52;;;;;;;5.34;100.00;100077.44;5111163;28;20051;-81
2021/10/27 07:53:46;;;;;;;34.65;16.25;;;;;;;5.47;100.00;100070.84;5109362;28;20048;-81
2021/10/27 07:56:15;;;;;;;36.63;16.15;;;;;;;5.74;100.00;100088.38;5109002;28;20051;-81
2021/10/27 07:58:48;;;;;;;34.50;15.55;;;;;;;5.83;100.00;100067.84;5109524;28;20047;-81
2021/10/27 08:01:16;;;;;;;28.65;15.20;;;;;;;6.05;100.00;100083.06;5109254;28;20051;-81
2021/10/27 08:03:43;;;;;;;34.40;16.17;;;;;;;6.05;100.00;100071.41;5109337;28;20048;-81
2021/10/27 08:06:12;;;;;;;28.23;15.32;;;;;;;6.24;100.00;100087.72;5109776;27;20120;-81
2021/10/27 08:08:39;;;;;;;30.23;14.37;;;;;;;6.34;100.00;100085.09;5108964;28;20086;-81
2021/10/27 08:11:06;;;;;;;35.53;14.57;;;;;;;6.37;100.00;100071.31;5108521;28;20465;-81
2021/10/27 08:13:33;;;;;;;28.45;14.48;;;;;;;6.49;100.00;100080.19;5109271;28;20047;-81
2021/10/27 08:15:59;;;;;;;27.05;13.75;;;;;;;6.50;100.00;100066.53;5109266;28;20464;-81
2021/10/27 08:18:26;;;;;;;25.17;13.82;;;;;;;6.72;100.00;100081.66;5109191;28;20043;-81
2021/10/27 08:20:53;;;;;;;27.48;14.40;;;;;;;6.81;100.00;100084.53;5109372;28;20048;-81
2021/10/27 08:23:26;;;;;;;24.98;13.20;;;;;;;6.95;100.00;100092.25;5109712;28;20113;-81
2021/10/27 08:25:55;;;;;;;23.70;12.93;;;;;;;6.95;100.00;100075.19;5108582;28;20127;-82
2021/10/27 08:28:30;;;;;;;21.50;13.20;;;;;;;7.16;100.00;100085.88;5108103;28;20055;-81
2021/10/27 08:31:04;;;;;;;23.25;11.73;;;;;;;7.12;100.00;100073.63;5109535;28;20048;-81
2021/10/27 08:33:42;;;;;;;24.58;11.48;;;;;;;7.24;100.00;100072.50;5109079;28;20052;-81
2021/10/27 08:36:09;;;;;;;20.25;12.02;;;;;;;7.40;100.00;100080.91;5108478;28;20052;-81
2021/10/27 08:38:37;;;;;;;21.38;12.95;;;;;;;7.49;100.00;100071.09;5108088;28;20105;-81
2021/10/27 08:41:05;;;;;;;25.15;13.07;;;;;;;7.66;100.00;100085.75;5096038;28;20063;-82
2021/10/27 08:43:32;;;;;;;18.08;12.00;;;;;;;7.68;100.00;100080.19;5109810;28;20048;-81
2021/10/27 08:46:00;;;;;;;25.67;11.68;;;;;;;7.77;100.00;100074.78;5108671;28;20051;-82
2021/10/27 08:48:29;;;;;;;20.13;10.77;;;;;;;7.86;100.00;100080.31;5110303;28;20105;-81
2021/10/27 08:50:56;;;;;;;21.27;10.43;;;;;;;7.76;100.00;100070.34;5110026;28;20097;-81
2021/10/27 08:53:25;;;;;;;23.52;10.65;;;;;;;7.89;100.00;100072.78;5108707;28;20051;-81
2021/10/27 08:55:55;;;;;;;19.05;10.80;;;;;;;7.95;100.00;100060.50;5106863;28;20058;-81
2021/10/27 08:58:25;;;;;;;16.27;10.57;;;;;;;7.97;100.00;100062.06;5105381;28;20055;-81
2021/10/27 09:01:00;;;;;;;18.67;10.80;;;;;;;8.23;100.00;100076.81;5081701;28;20055;-81
2021/10/27 09:03:37;;;;;;;30.17;11.23;;;;;;;8.16;100.00;100065.72;5085119;28;20067;-81
2021/10/27 09:06:18;;;;;;;19.10;11.15;;;;;;;8.31;100.00;100076.94;5087431;28;20524;-81
2021/10/27 09:14:54;;;;;;;15.27;10.02;;;;;;;8.43;100.00;100061.31;5094788;28;20385;-81
2021/10/27 09:34:33;;;;;;;15.48;9.13;;;;;;;9.03;100.00;100034.66;5094104;28;20352;-81
2021/10/27 10:05:39;;;;;;;18.33;10.27;;;;;;;10.03;100.00;100003.72;5093885;28;20074;-81
2021/10/27 10:08:06;;;;;;;16.42;9.48;;;;;;;10.17;100.00;100007.69;5089474;28;20044;-81
2021/10/27 10:10:34;;;;;;;21.88;10.00;;;;;;;10.25;100.00;100008.59;5072674;28;20064;-81
2021/10/27 10:13:01;;;;;;;16.42;9.07;;;;;;;10.27;100.00;100005.72;5088541;28;20044;-81
2021/10/27 10:15:36;;;;;;;15.00;8.55;;;;;;;10.26;100.00;100007.56;5088079;28;20445;-81
2021/10/27 10:18:07;;;;;;;16.13;8.30;;;;;;;10.35;100.00;99999.50;5092577;28;20048;-81
2021/10/27 10:20:35;;;;;;;12.90;8.13;;;;;;;10.44;100.00;100014.81;5087800;28;20058;-81
2021/10/27 10:23:17;;;;;;;15.98;9.68;;;;;;;10.60;100.00;100014.88;5093722;28;20060;-81
2021/10/27 10:25:50;;;;;;;19.38;9.52;;;;;;;10.76;100.00;100014.09;5084726;28;20059;-81
2021/10/27 10:28:19;;;;;;;13.30;7.93;;;;;;;10.69;100.00;99994.00;5073239;28;20045;-81
2021/10/27 10:30:51;;;;;;;13.07;7.70;;;;;;;10.75;100.00;99987.91;5078711;28;20052;-81
2021/10/27 10:33:34;;;;;;;12.05;7.65;;;;;;;11.00;100.00;100000.72;5093074;28;20060;-81
2021/10/27 10:36:04;;;;;;;10.68;6.95;;;;;;;11.13;100.00;99999.19;5087453;28;20040;-81
2021/10/27 10:38:47;;;;;;;13.90;7.38;;;;;;;11.19;100.00;99994.97;5093140;28;20048;-82
2021/10/27 10:41:43;;;;;;;15.30;7.57;;;;;;;11.28;100.00;99993.94;5086552;28;20067;-81
2021/10/27 10:59:53;;;;;;;11.10;5.18;;;;;;;11.82;97.70;99982.50;5084385;28;20094;-81
2021/10/27 11:26:08;;;;;;;10.23;4.20;;;;;;;12.31;93.65;99937.06;5085303;28;20059;-81
2021/10/27 11:39:52;;;;;;;5.55;3.25;;;;;;;12.80;88.99;99925.91;5092376;28;20055;-81
2021/10/27 11:45:26;;;;;;;8.20;3.58;;;;;;;13.00;87.94;99917.22;5089058;28;20054;-81
2021/10/27 11:47:57;;;;;;;8.20;3.60;;;;;;;13.13;88.53;99922.94;5088927;28;20059;-81
2021/10/27 11:50:32;;;;;;;7.20;4.07;;;;;;;13.08;88.29;99903.50;5071964;28;20045;-81
2021/10/27 11:53:01;;;;;;;8.85;3.70;;;;;;;13.18;87.37;99906.84;5072273;28;20059;-81
2021/10/27 11:55:32;;;;;;;7.22;3.75;;;;;;;13.27;87.32;99900.25;5071671;28;20113;-81
2021/10/27 11:57:59;;;;;;;5.95;3.65;;;;;;;13.28;84.76;99892.94;5072167;28;20048;-81
2021/10/27 12:00:30;;;;;;;12.55;3.67;;;;;;;13.31;85.64;99903.50;5080085;28;20491;-81
2021/10/27 12:03:03;;;;;;;9.63;3.63;;;;;;;13.26;85.84;99904.06;5092015;28;20047;-81
2021/10/27 12:05:36;;;;;;;5.95;3.53;;;;;;;13.33;86.90;99885.03;5084466;28;20118;-81
2021/10/27 12:08:19;;;;;;;7.55;4.13;;;;;;;13.50;85.05;99885.75;5091910;28;20059;-81
2021/10/27 12:11:12;;;;;;;8.10;3.95;;;;;;;13.56;85.24;99873.22;5091065;28;20054;-81
2021/10/27 12:19:28;;;;;;;4.03;1.40;;;;;;;13.60;81.90;99864.47;5091510;28;20056;-79
2021/10/27 12:21:59;;;;;;;3.03;1.42;;;;;;;13.60;83.29;99869.09;5082165;28;20138;-80
2021/10/27 12:24:28;;;;;;;3.95;1.60;;;;;;;13.67;82.17;99855.53;5071428;28;20497;-80
2021/10/27 12:27:02;;;;;;;1.73;1.15;;;;;;;13.79;80.78;99860.34;5071777;28;20053;-80
2021/10/27 12:29:30;;;;;;;1.88;1.15;;;;;;;13.99;80.86;99866.06;5071826;28;20051;-80
2021/10/27 12:32:09;;;;;;;3.00;0.95;;;;;;;14.04;77.02;99835.41;5074196;28;20080;-80
2021/10/27 12:34:45;;;;;;;3.30;1.17;;;;;;;13.99;77.39;99846.94;5093729;28;20048;-80
2021/10/27 12:37:28;;;;;;;1.73;1.15;;;;;;;14.13;74.92;99831.53;5093804;28;20312;-80
2021/10/27 12:40:14;;;;;;;6.20;1.08;;;;;;;14.27;75.48;99845.38;5095594;28;20488;-80
2021/10/27 12:42:42;;;;;;;1.10;1.00;;;;;;;14.38;74.11;99838.53;5084166;28;20127;-80
2021/10/27 12:45:09;;;;;;;4.03;1.52;;;;;;;14.41;74.80;99832.72;5074864;28;20056;-80
2021/10/27 12:47:39;;;;;;;1.30;1.00;;;;;;;14.51;73.65;99830.47;5084407;28;20048;-80
2021/10/27 12:50:11;;;;;;;4.47;2.08;;;;;;;14.43;75.32;99817.78;5095687;28;20117;-80
2021/10/27 12:52:42;;;;;;;4.07;1.23;;;;;;;14.39;74.51;99819.22;5095436;28;20071;-80
2021/10/27 12:55:15;;;;;;;4.53;1.38;;;;;;;14.51;73.53;99831.34;5093744;28;20492;-80
2021/10/27 12:57:56;;;;;;;3.10;1.30;;;;;;;14.31;74.10;99835.75;5095374;28;20098;-80
2021/10/27 13:00:28;;;;;;;3.58;1.48;;;;;;;14.17;74.79;99812.88;5094161;28;20048;-80
2021/10/27 13:03:42;;;;;;;6.00;1.40;;;;;;;14.37;76.83;99821.28;5094880;28;20060;-80
2021/10/27 13:06:22;;;;;;;4.80;1.75;;;;;;;14.52;76.24;99821.25;5074828;28;20049;-80
2021/10/27 13:11:47;;;;;;;4.07;1.27;;;;;;;14.68;72.25;99817.44;5077829;28;20040;-80
2021/10/27 13:14:36;;;;;;;3.92;1.02;;;;;;;14.59;72.54;99813.09;5094727;28;20052;-80
2021/10/27 13:19:59;;;;;;;4.65;0.90;;;;;;;14.66;72.78;99808.56;5094932;28;20055;-80
2021/10/27 13:22:34;;;;;;;0.88;0.80;;;;;;;14.66;73.62;99806.69;5095163;28;20048;-80
2021/10/27 13:30:35;;;;;;;2.10;0.75;;;;;;;14.79;71.38;99783.22;5087745;28;20059;-80
2021/10/27 13:33:06;;;;;;;2.15;0.65;;;;;;;14.80;69.25;99784.94;5091184;28;20048;-80
2021/10/27 13:35:34;;;;;;;2.25;0.77;;;;;;;14.79;72.14;99785.97;5094541;28;20051;-80
2021/10/27 13:38:01;;;;;;;1.90;0.60;;;;;;;14.76;70.63;99789.94;5084317;28;20040;-80
2021/10/27 13:40:30;;;;;;;1.95;0.70;;;;;;;14.75;69.62;99777.28;5074427;28;20056;-80
2021/10/27 13:43:00;;;;;;;3.10;0.70;;;;;;;14.82;70.66;99782.81;5074300;28;20045;-80
2021/10/27 13:45:32;;;;;;;0.77;0.60;;;;;;;14.74;69.80;99792.03;5086204;28;20101;-80
2021/10/27 13:48:08;;;;;;;3.88;1.10;;;;;;;14.71;71.57;99802.50;5092967;28;20052;-81
2021/10/27 14:07:34;;;;;;;1.52;0.90;;;;;;;14.91;71.24;99795.31;5084309;28;20051;-81
2021/10/27 14:10:06;;;;;;;2.65;1.08;;;;;;;14.95;70.22;99791.16;5093577;28;20056;-81
2021/10/27 14:12:42;;;;;;;1.38;0.77;;;;;;;14.93;70.15;99773.22;5073848;28;20395;-81
2021/10/27 14:15:22;;;;;;;2.30;0.88;;;;;;;14.86;69.81;99773.19;5073345;28;20438;-81
2021/10/27 14:18:14;;;;;;;9.75;0.90;;;;;;;14.98;70.98;99770.72;5085620;28;20047;-81
2021/10/27 14:40:09;;;;;;;2.53;0.90;;;;;;;14.74;72.37;99750.97;5093198;28;20512;-81
2021/10/27 14:48:18;;;;;;;1.35;0.90;;;;;;;14.74;71.73;99750.09;5072694;28;20051;-80
2021/10/27 14:51:15;;;;;;;2.78;1.10;;;;;;;14.69;74.46;99746.09;5093068;28;20058;-80
2021/10/27 15:21:16;;;;;;;1.67;1.00;;;;;;;13.80;75.32;99722.66;5092734;28;20059;-80
2021/10/27 15:24:01;;;;;;;3.05;0.98;;;;;;;13.79;76.85;99717.41;5091515;28;20047;-81
2021/10/27 15:32:26;;;;;;;2.63;1.35;;;;;;;13.53;83.22;99728.84;5065178;28;20093;-80
2021/10/27 15:35:02;;;;;;;5.07;1.35;;;;;;;13.41;84.34;99712.06;5091987;28;20117;-80
2021/10/27 15:43:26;;;;;;;4.30;1.45;;;;;;;13.19;86.43;99700.22;5092252;28;20043;-81
2021/10/27 15:51:23;;;;;;;3.53;1.63;;;;;;;13.01;88.22;99708.78;5092252;28;20055;-80
2021/10/27 15:53:53;;;;;;;4.32;1.60;;;;;;;12.89;89.20;99700.19;5092676;28;20172;-80
2021/10/27 15:56:20;;;;;;;4.10;1.95;;;;;;;12.86;89.92;99698.69;5089924;28;20438;-80
2021/10/27 15:58:48;;;;;;;3.00;1.70;;;;;;;12.70;90.76;99701.59;5091826;28;20480;-81
2021/10/27 16:01:15;;;;;;;7.40;2.15;;;;;;;12.52;91.83;99694.56;5090991;28;20052;-81
2021/10/27 16:03:42;;;;;;;7.78;2.22;;;;;;;12.54;92.47;99698.00;5092329;28;20101;-80
2021/10/27 16:06:09;;;;;;;8.77;2.15;;;;;;;12.38;92.99;99704.41;5091776;28;20048;-81
2021/10/27 16:08:37;;;;;;;4.45;1.90;;;;;;;12.26;93.77;99705.06;5092829;28;20379;-81
2021/10/27 16:11:04;;;;;;;6.38;2.10;;;;;;;11.98;94.86;99703.72;5092922;28;20051;-81
2021/10/27 16:13:32;;;;;;;3.42;2.15;;;;;;;11.81;95.23;99683.84;5096162;28;20036;-80
2021/10/27 16:16:00;;;;;;;3.83;1.90;;;;;;;11.72;96.12;99697.72;5095686;28;20051;-81
2021/10/27 16:18:30;;;;;;;2.75;1.98;;;;;;;11.50;96.67;99694.75;5094358;28;20483;-81
2021/10/27 16:20:59;;;;;;;5.95;3.13;;;;;;;11.50;97.01;99703.78;5096186;28;20052;-81
2021/10/27 16:23:26;;;;;;;6.90;2.90;;;;;;;11.37;97.84;99694.50;5096176;28;20051;-81
2021/10/27 16:25:55;;;;;;;5.82;3.40;;;;;;;11.38;98.84;99709.81;5094109;28;20040;-81
2021/10/27 16:28:23;;;;;;;6.97;3.42;;;;;;;11.22;99.35;99694.41;5095718;28;20483;-80
2021/10/27 16:30:50;;;;;;;9.15;5.30;;;;;;;11.33;99.00;99700.28;5095722;28;20530;-81
2021/10/27 16:33:21;;;;;;;6.82;3.72;;;;;;;11.59;98.34;99706.47;5086808;28;20487;-81
2021/10/27 16:35:48;;;;;;;8.65;3.25;;;;;;;11.42;99.20;99713.88;5075173;28;20044;-81
2021/10/27 16:38:15;;;;;;;5.22;2.90;;;;;;;11.32;98.95;99709.50;5075084;28;20056;-80
2021/10/27 16:40:42;;;;;;;5.03;3.30;;;;;;;11.20;99.74;99713.63;5076892;28;20105;-80
2021/10/27 16:43:10;;;;;;;6.15;2.55;;;;;;;11.31;100.00;99726.00;5095557;28;20048;-80
2021/10/27 16:45:36;;;;;;;8.00;3.42;;;;;;;10.91;100.00;99701.44;5091769;28;20048;-80
2021/10/27 16:48:05;;;;;;;5.38;3.08;;;;;;;10.82;100.00;99720.69;5094707;28;20051;-80
2021/10/27 16:50:33;;;;;;;6.97;3.40;;;;;;;10.74;100.00;99722.41;5095318;28;20050;-80
2021/10/27 16:53:00;;;;;;;6.25;3.58;;;;;;;10.72;100.00;99718.16;5095531;28;20044;-80
2021/10/27 16:55:29;;;;;;;8.07;3.30;;;;;;;10.59;100.00;99719.53;5094261;28;20093;-80
2021/10/27 16:57:57;;;;;;;5.32;3.60;;;;;;;10.56;100.00;99725.31;5095474;28;20410;-80
2021/10/27 17:00:26;;;;;;;13.38;6.68;;;;;;;10.57;100.00;99718.84;5094999;28;20097;-80
2021/10/27 17:02:53;;;;;;;6.30;3.80;;;;;;;10.63;100.00;99730.94;5094304;28;20048;-81
2021/10/27 17:05:20;;;;;;;8.75;3.70;;;;;;;10.44;100.00;99727.53;5092323;28;20117;-81
2021/10/27 17:07:48;;;;;;;13.27;4.10;;;;;;;10.37;100.00;99721.09;5095222;28;20450;-80
2021/10/27 17:10:16;;;;;;;3.88;2.25;;;;;;;10.07;100.00;99734.28;5094645;28;20052;-80
2021/10/27 17:12:44;;;;;;;7.15;3.08;;;;;;;10.02;100.00;99742.06;5095286;28;20078;-81
2021/10/27 17:15:12;;;;;;;7.35;3.53;;;;;;;9.99;100.00;99733.41;5093732;28;20048;-80
2021/10/27 17:17:41;;;;;;;9.13;3.13;;;;;;;9.94;100.00;99730.34;5094900;28;20097;-81
2021/10/27 17:20:10;;;;;;;6.68;3.20;;;;;;;9.68;100.00;99734.00;5093147;28;20062;-80
2021/10/27 17:22:39;;;;;;;6.53;2.90;;;;;;;9.63;100.00;99741.81;5094920;28;20048;-81
2021/10/27 17:25:09;;;;;;;6.85;2.72;;;;;;;9.32;100.00;99726.94;5094107;28;20507;-80
2021/10/27 17:27:38;;;;;;;4.45;2.80;;;;;;;9.21;100.00;99738.94;5095126;28;20043;-81
2021/10/27 17:30:06;;;;;;;7.00;2.35;;;;;;;9.13;100.00;99733.44;5094702;28;20051;-81
2021/10/27 17:32:33;;;;;;;9.05;2.63;;;;;;;9.07;100.00;99733.25;5094668;28;20048;-81
2021/10/27 17:35:00;;;;;;;7.03;2.38;;;;;;;9.02;100.00;99736.47;5094270;28;20044;-81
2021/10/27 17:37:27;;;;;;;7.28;2.88;;;;;;;8.93;100.00;99726.56;5092405;28;20036;-81
2021/10/27 17:39:54;;;;;;;6.55;2.05;;;;;;;8.85;100.00;99741.78;5093978;28;20067;-81
2021/10/27 17:42:22;;;;;;;3.83;1.80;;;;;;;8.84;100.00;99742.78;5094267;28;20097;-81
2021/10/27 17:47:51;;;;;;;4.38;1.75;;;;;;;8.45;100.00;99723.38;5080741;28;20079;-81
2021/10/27 17:59:16;;;;;;;2.90;1.88;;;;;;;8.22;100.00;99740.09;5093881;28;20055;-81
2021/10/27 18:01:44;;;;;;;9.00;2.45;;;;;;;8.05;100.00;99743.63;5093733;28;20075;-81
2021/10/27 18:04:13;;;;;;;6.25;2.35;;;;;;;8.01;100.00;99750.34;5087597;28;20105;-85
